Time;durP1;ratioP1;P1;durP2;ratioP2;P2;SDS_P1;SDS_P2;PMS_P1;PMS_P2;Temp;Humidity;BMP_temperature;BMP_pressure;BME280_temperature;BME280_humidity;BME280_pressure;Samples;Min_cycle;Max_cycle;Signal;HPM_P1;HPM_P2
2022/10/06 00:01:16;;;;;;;12.43;1.52;;;12.80;99.90;;;;;;5072237;28;20075;-65
2022/10/06 00:03:43;;;;;;;17.08;2.30;;;12.60;99.90;;;;;;5071678;28;20496;-64
2022/10/06 00:06:11;;;;;;;8.60;1.45;;;12.50;99.90;;;;;;5071312;28;20047;-65
2022/10/06 00:08:39;;;;;;;12.30;2.20;;;14.00;99.90;;;;;;5067931;28;20067;-64
2022/10/06 00:11:06;;;;;;;12.48;1.92;;;12.40;99.90;;;;;;5070926;28;20538;-64
2022/10/06 00:13:31;;;;;;;12.30;2.28;;;12.40;99.90;;;;;;5070102;28;20044;-64
2022/10/06 00:15:58;;;;;;;13.27;2.05;;;13.10;99.90;;;;;;5072471;28;20101;-65
2022/10/06 00:18:25;;;;;;;11.00;2.10;;;12.40;99.90;;;;;;5071211;28;20117;-65
2022/10/06 00:20:59;;;;;;;13.20;2.83;;;12.50;99.90;;;;;;5071482;28;20555;-64
2022/10/06 00:23:26;;;;;;;13.30;2.13;;;12.50;99.90;;;;;;5070266;28;20455;-64
2022/10/06 00:25:52;;;;;;;10.68;1.55;;;12.50;99.90;;;;;;5071138;28;20055;-64
2022/10/06 00:28:18;;;;;;;14.35;1.92;;;12.50;99.90;;;;;;5071072;28;20040;-65
2022/10/06 00:30:45;;;;;;;11.98;2.35;;;14.70;99.90;;;;;;5071138;28;20392;-64
2022/10/06 00:33:13;;;;;;;17.50;2.30;;;12.50;98.40;;;;;;5070224;28;20501;-65
2022/10/06 00:35:39;;;;;;;20.00;2.10;;;12.60;99.20;;;;;;5069524;28;20027;-64
2022/10/06 00:38:04;;;;;;;13.20;2.08;;;14.50;98.80;;;;;;5070388;28;21281;-64
2022/10/06 00:40:31;;;;;;;14.77;2.45;;;14.30;98.00;;;;;;5072326;28;20039;-65
2022/10/06 00:43:03;;;;;;;10.93;1.55;;;12.70;97.40;;;;;;5070111;28;20130;-64
2022/10/06 00:45:38;;;;;;;13.57;2.15;;;12.60;96.30;;;;;;5072166;28;20039;-65
2022/10/06 00:48:15;;;;;;;10.48;1.50;;;12.50;96.90;;;;;;5071727;28;20040;-64
2022/10/06 00:50:42;;;;;;;17.05;2.30;;;12.40;96.70;;;;;;5070822;28;22158;-65
2022/10/06 00:53:08;;;;;;;17.60;3.33;;;12.70;97.90;;;;;;5071962;28;20075;-64
2022/10/06 00:55:34;;;;;;;14.10;1.90;;;12.50;96.20;;;;;;5067678;28;20054;-65
2022/10/06 00:58:00;;;;;;;14.63;2.30;;;12.50;95.50;;;;;;5070546;28;20039;-64
2022/10/06 01:00:27;;;;;;;12.20;1.65;;;12.70;94.20;;;;;;5070435;28;20464;-64
2022/10/06 01:03:07;;;;;;;13.25;1.90;;;12.70;92.30;;;;;;5104376;27;20089;-65
2022/10/06 01:05:40;;;;;;;12.38;2.30;;;12.40;93.10;;;;;;5069015;28;20044;-64
2022/10/06 01:08:07;;;;;;;11.68;1.90;;;12.50;92.90;;;;;;5070392;28;20589;-64
2022/10/06 01:10:32;;;;;;;8.15;1.90;;;12.60;93.20;;;;;;5069848;28;20071;-65
2022/10/06 01:12:58;;;;;;;11.98;1.80;;;12.70;91.60;;;;;;5071157;28;20207;-65
2022/10/06 01:15:26;;;;;;;12.38;1.83;;;12.60;91.10;;;;;;5070465;28;20098;-65
2022/10/06 01:18:01;;;;;;;14.18;2.38;;;13.00;89.50;;;;;;5068741;28;20156;-65
2022/10/06 01:20:28;;;;;;;15.95;2.22;;;12.50;90.50;;;;;;5069118;28;20047;-64
2022/10/06 01:23:04;;;;;;;14.52;2.40;;;12.50;89.00;;;;;;5070609;28;20133;-66
2022/10/06 01:25:31;;;;;;;10.43;1.65;;;12.50;87.20;;;;;;5072148;28;20044;-65
2022/10/06 01:27:58;;;;;;;10.95;1.52;;;12.50;89.10;;;;;;5067664;28;20115;-65
2022/10/06 01:30:49;;;;;;;15.02;2.42;;;14.40;89.40;;;;;;5068292;28;20048;-65
2022/10/06 01:33:16;;;;;;;12.10;2.58;;;12.40;86.80;;;;;;5068950;28;20549;-66
2022/10/06 01:35:45;;;;;;;13.38;2.58;;;12.50;78.90;;;;;;5069717;28;20040;-64
2022/10/06 01:38:11;;;;;;;10.07;2.03;;;12.40;85.60;;;;;;5069523;28;20048;-65
2022/10/06 01:40:36;;;;;;;12.45;1.75;;;12.40;86.90;;;;;;5069048;28;20594;-65
2022/10/06 01:43:02;;;;;;;14.15;2.13;;;12.50;88.30;;;;;;5068999;28;20410;-64
2022/10/06 01:45:28;;;;;;;6.35;1.40;;;12.10;90.10;;;;;;5052088;28;20396;-65
2022/10/06 01:47:54;;;;;;;18.48;2.95;;;14.20;90.80;;;;;;5070126;28;20040;-65
2022/10/06 01:50:19;;;;;;;11.38;1.92;;;12.30;84.80;;;;;;5072604;28;20051;-66
2022/10/06 01:52:45;;;;;;;16.73;2.22;;;12.30;88.90;;;;;;5070855;28;20096;-65
2022/10/06 01:55:11;;;;;;;18.25;2.45;;;12.30;84.40;;;;;;5071047;28;20654;-64
2022/10/06 01:57:39;;;;;;;13.02;2.00;;;12.10;88.70;;;;;;5070156;28;20386;-65
2022/10/06 02:00:05;;;;;;;11.07;1.65;;;14.60;80.90;;;;;;5070662;28;20041;-64
2022/10/06 02:02:31;;;;;;;13.48;1.73;;;12.20;80.50;;;;;;5071416;28;20508;-64
2022/10/06 02:04:57;;;;;;;13.73;2.10;;;12.80;78.90;;;;;;5069428;28;20043;-66
2022/10/06 02:07:22;;;;;;;13.50;1.88;;;12.20;80.60;;;;;;5072361;28;20048;-65
2022/10/06 02:09:48;;;;;;;11.00;1.88;;;12.20;79.70;;;;;;5072435;28;20039;-64
2022/10/06 02:12:14;;;;;;;10.73;1.63;;;12.30;81.40;;;;;;5072153;28;20059;-65
2022/10/06 02:14:40;;;;;;;12.85;2.30;;;12.20;77.00;;;;;;5071620;28;20062;-65
2022/10/06 02:17:07;;;;;;;14.02;2.38;;;10.30;77.60;;;;;;5069611;28;20516;-66
2022/10/06 02:19:33;;;;;;;13.95;1.92;;;12.20;79.80;;;;;;5073805;28;20032;-65
2022/10/06 02:21:59;;;;;;;9.23;1.73;;;12.00;79.90;;;;;;5074761;28;20051;-65
2022/10/06 02:24:25;;;;;;;12.00;1.65;;;12.00;76.30;;;;;;5074235;28;20461;-65
2022/10/06 02:26:52;;;;;;;12.82;1.70;;;12.40;74.60;;;;;;5073341;28;20374;-64
2022/10/06 02:29:17;;;;;;;12.07;2.00;;;12.20;74.70;;;;;;5071541;28;20032;-65
2022/10/06 02:31:43;;;;;;;10.13;2.00;;;12.00;71.40;;;;;;5071339;28;20566;-65
2022/10/06 02:34:09;;;;;;;10.55;2.63;;;12.00;71.20;;;;;;5072530;28;20066;-64
2022/10/06 02:36:35;;;;;;;15.43;2.00;;;12.60;71.50;;;;;;5070512;28;20039;-63
2022/10/06 02:39:00;;;;;;;9.57;1.90;;;12.00;73.40;;;;;;5073162;28;20036;-65
2022/10/06 02:41:26;;;;;;;15.88;1.92;;;12.00;72.40;;;;;;5072201;28;20040;-66
2022/10/06 02:43:54;;;;;;;11.68;1.95;;;11.90;70.20;;;;;;5073608;28;20679;-65
2022/10/06 02:46:19;;;;;;;12.93;1.60;;;12.20;63.00;;;;;;5071300;28;20043;-64
2022/10/06 02:48:45;;;;;;;10.27;1.58;;;12.10;64.50;;;;;;5072315;28;20038;-64
2022/10/06 02:51:14;;;;;;;11.85;2.17;;;12.10;63.80;;;;;;5072031;28;20539;-65
2022/10/06 02:53:42;;;;;;;10.32;1.52;;;14.20;61.60;;;;;;5074170;28;20083;-64
2022/10/06 02:56:11;;;;;;;9.18;1.60;;;13.10;62.40;;;;;;5074461;28;20412;-64
2022/10/06 02:58:38;;;;;;;15.38;2.35;;;12.20;58.70;;;;;;5071104;28;20040;-65
2022/10/06 03:01:17;;;;;;;11.90;1.80;;;12.00;60.20;;;;;;5071388;28;20044;-65
2022/10/06 03:03:45;;;;;;;9.10;1.55;;;12.00;58.80;;;;;;5073888;28;20389;-65
2022/10/06 03:06:29;;;;;;;13.55;2.17;;;12.20;64.20;;;;;;5073673;28;20043;-65
2022/10/06 03:08:59;;;;;;;13.55;2.50;;;12.00;67.80;;;;;;5072987;28;20067;-65
2022/10/06 03:11:27;;;;;;;10.70;2.63;;;12.50;66.90;;;;;;5073284;28;20108;-65
2022/10/06 03:13:53;;;;;;;12.18;1.83;;;11.90;69.00;;;;;;5053822;28;20469;-65
2022/10/06 03:16:23;;;;;;;11.48;1.75;;;12.00;70.40;;;;;;5071302;28;20512;-65
2022/10/06 03:18:51;;;;;;;10.05;1.70;;;12.00;70.60;;;;;;5071382;28;20416;-64
2022/10/06 03:21:22;;;;;;;11.20;1.98;;;11.90;77.20;;;;;;5072066;28;20571;-63
2022/10/06 03:23:49;;;;;;;12.32;2.15;;;12.00;72.70;;;;;;5072054;28;20424;-65
2022/10/06 03:26:17;;;;;;;13.77;2.08;;;14.10;75.80;;;;;;5069730;28;20088;-65
2022/10/06 03:28:43;;;;;;;12.63;1.63;;;11.90;77.00;;;;;;5069847;28;20083;-65
2022/10/06 03:31:10;;;;;;;10.82;1.70;;;12.00;76.60;;;;;;5104279;27;20043;-64
2022/10/06 03:33:36;;;;;;;19.33;2.58;;;13.80;81.20;;;;;;5071800;28;20098;-65
2022/10/06 03:36:03;;;;;;;15.05;2.45;;;11.90;81.40;;;;;;5071511;28;20035;-65
2022/10/06 03:38:33;;;;;;;12.60;1.58;;;11.70;82.00;;;;;;5071586;28;20660;-65
2022/10/06 03:41:06;;;;;;;12.23;2.25;;;11.80;81.10;;;;;;5070382;28;20040;-64
2022/10/06 03:43:32;;;;;;;11.27;1.75;;;12.10;83.30;;;;;;5069935;28;20399;-65
2022/10/06 03:45:59;;;;;;;15.75;2.35;;;11.70;86.50;;;;;;5072462;28;20428;-65
2022/10/06 03:48:34;;;;;;;7.70;1.40;;;13.70;88.60;;;;;;5069766;28;20123;-65
2022/10/06 03:51:06;;;;;;;9.30;1.83;;;11.90;84.40;;;;;;5070305;28;20032;-65
2022/10/06 03:53:33;;;;;;;11.80;1.77;;;11.70;86.20;;;;;;5069547;28;20116;-65
2022/10/06 03:56:05;;;;;;;11.25;1.83;;;12.10;84.60;;;;;;5072150;28;20385;-65
2022/10/06 03:58:33;;;;;;;10.30;1.70;;;11.70;85.20;;;;;;5071310;28;20610;-65
2022/10/06 04:01:03;;;;;;;10.23;1.90;;;11.60;85.00;;;;;;5071669;28;20059;-65
2022/10/06 04:03:30;;;;;;;11.70;1.60;;;11.60;86.10;;;;;;5069667;28;20707;-66
2022/10/06 04:05:57;;;;;;;10.65;1.77;;;11.70;87.60;;;;;;5070992;28;20057;-64
2022/10/06 04:08:24;;;;;;;13.45;2.30;;;13.70;90.20;;;;;;5070412;28;20169;-66
2022/10/06 04:10:50;;;;;;;14.02;2.10;;;11.40;90.30;;;;;;5071051;28;20040;-65
2022/10/06 04:13:17;;;;;;;12.93;1.95;;;11.20;91.00;;;;;;5072416;28;20048;-65
2022/10/06 04:15:43;;;;;;;10.57;1.77;;;11.30;91.40;;;;;;5071713;28;20043;-65
2022/10/06 04:18:10;;;;;;;8.90;1.90;;;11.10;92.60;;;;;;5072465;28;20051;-65
2022/10/06 04:20:36;;;;;;;12.10;2.38;;;11.30;93.10;;;;;;5072061;28;20338;-65
2022/10/06 04:23:02;;;;;;;11.95;1.85;;;12.80;92.90;;;;;;5073244;28;20038;-65
2022/10/06 04:25:28;;;;;;;13.00;1.67;;;11.20;93.30;;;;;;5073542;28;20063;-66
2022/10/06 04:27:53;;;;;;;15.73;2.08;;;11.10;94.00;;;;;;5071222;28;20522;-65
2022/10/06 04:30:19;;;;;;;11.95;2.20;;;11.20;94.30;;;;;;5071737;28;20044;-65
2022/10/06 04:32:45;;;;;;;15.30;1.85;;;11.10;94.80;;;;;;5071700;28;20072;-65
2022/10/06 04:35:11;;;;;;;9.18;1.52;;;11.00;95.40;;;;;;5072936;28;20044;-64
2022/10/06 04:37:37;;;;;;;12.60;2.58;;;11.90;95.90;;;;;;5072197;28;20040;-65
2022/10/06 04:40:03;;;;;;;12.68;2.38;;;12.00;96.60;;;;;;5071476;28;20510;-68
2022/10/06 04:42:28;;;;;;;11.90;1.90;;;10.90;96.00;;;;;;5069120;28;20349;-68
2022/10/06 04:44:54;;;;;;;11.40;2.22;;;11.00;96.50;;;;;;5070061;28;20492;-67
2022/10/06 04:47:20;;;;;;;16.70;1.92;;;11.00;96.30;;;;;;5067980;28;20055;-68
2022/10/06 04:49:46;;;;;;;11.48;1.80;;;11.20;96.90;;;;;;5068763;28;20040;-67
2022/10/06 04:52:12;;;;;;;14.35;1.60;;;11.80;97.60;;;;;;5069718;28;20462;-67
2022/10/06 04:54:37;;;;;;;9.25;1.60;;;11.10;97.80;;;;;;5071548;28;20040;-68
2022/10/06 04:57:03;;;;;;;15.05;2.42;;;10.80;98.70;;;;;;5070056;28;20071;-68
2022/10/06 05:02:13;;;;;;;13.63;1.85;;;10.90;98.80;;;;;;5070139;28;20047;-67
2022/10/06 05:04:39;;;;;;;10.20;1.60;;;10.90;99.90;;;;;;5069870;28;20044;-67
2022/10/06 05:07:05;;;;;;;14.02;2.15;;;12.20;99.90;;;;;;5071942;28;20058;-67
2022/10/06 05:09:31;;;;;;;15.73;2.58;;;10.80;99.90;;;;;;5069350;28;20122;-68
2022/10/06 05:11:57;;;;;;;9.60;1.63;;;10.80;99.90;;;;;;5067732;28;20035;-67
2022/10/06 05:14:23;;;;;;;19.45;2.53;;;10.80;99.90;;;;;;5068388;28;20584;-67
2022/10/06 05:16:49;;;;;;;14.52;1.80;;;11.40;99.90;;;;;;5071380;28;20036;-67
2022/10/06 05:19:14;;;;;;;12.20;1.92;;;10.90;99.90;;;;;;5068969;28;20040;-67
2022/10/06 05:21:40;;;;;;;15.30;2.13;;;10.90;99.90;;;;;;5066222;28;20488;-68
2022/10/06 05:24:06;;;;;;;12.63;1.90;;;10.80;99.90;;;;;;5067816;28;20743;-67
2022/10/06 05:26:34;;;;;;;13.23;1.77;;;11.00;99.90;;;;;;5070155;28;20496;-67
2022/10/06 05:29:00;;;;;;;13.50;2.38;;;10.80;99.90;;;;;;5068714;28;20094;-67
2022/10/06 05:31:28;;;;;;;15.32;2.15;;;12.90;99.90;;;;;;5068206;28;20032;-67
2022/10/06 05:33:56;;;;;;;17.20;2.00;;;11.00;99.90;;;;;;5070728;28;20071;-67
2022/10/06 05:36:28;;;;;;;11.57;1.90;;;10.90;99.90;;;;;;5069577;28;20059;-67
2022/10/06 05:38:55;;;;;;;13.20;1.95;;;11.40;99.90;;;;;;5070750;28;20196;-65
2022/10/06 05:41:27;;;;;;;14.73;2.10;;;11.10;99.90;;;;;;5071047;28;20142;-65
2022/10/06 05:43:53;;;;;;;13.02;1.85;;;9.10;99.90;;;;;;5075267;28;20453;-65
2022/10/06 05:46:27;;;;;;;13.68;2.17;;;12.50;99.90;;;;;;5073359;28;20248;-65
2022/10/06 05:49:03;;;;;;;10.55;2.00;;;11.60;99.90;;;;;;5074281;28;20694;-65
2022/10/06 05:51:31;;;;;;;14.25;1.70;;;10.80;99.90;;;;;;5072574;28;20861;-66
2022/10/06 05:53:58;;;;;;;10.02;1.88;;;11.00;99.90;;;;;;5073160;28;20614;-65
2022/10/06 05:56:25;;;;;;;15.38;2.25;;;11.00;99.90;;;;;;5073597;28;20097;-65
2022/10/06 05:58:53;;;;;;;9.73;1.70;;;11.10;99.90;;;;;;5071126;28;20040;-65
2022/10/06 06:01:30;;;;;;;15.55;2.50;;;11.00;99.90;;;;;;5072352;28;20094;-66
2022/10/06 06:04:01;;;;;;;14.77;2.22;;;11.80;99.90;;;;;;5073241;28;20816;-65
2022/10/06 06:06:32;;;;;;;15.05;2.05;;;11.10;99.90;;;;;;5073490;28;20035;-65
2022/10/06 06:08:59;;;;;;;10.02;1.95;;;11.30;99.90;;;;;;5074176;28;20397;-65
2022/10/06 06:11:26;;;;;;;13.38;2.92;;;12.00;99.90;;;;;;5071724;28;20047;-65
2022/10/06 06:13:56;;;;;;;17.95;2.95;;;11.10;99.90;;;;;;5071593;28;20062;-64
2022/10/06 06:16:23;;;;;;;14.93;2.00;;;12.20;99.90;;;;;;5072535;28;20078;-65
2022/10/06 06:18:49;;;;;;;14.77;2.10;;;11.00;99.90;;;;;;5071976;28;20055;-64
2022/10/06 06:21:15;;;;;;;11.77;1.73;;;11.40;99.90;;;;;;5072194;28;20044;-64
2022/10/06 06:23:44;;;;;;;15.30;2.38;;;11.70;99.90;;;;;;5074115;28;20065;-65
2022/10/06 06:26:24;;;;;;;14.10;2.10;;;11.10;99.90;;;;;;5074201;28;20139;-65
2022/10/06 06:28:55;;;;;;;13.68;2.25;;;11.10;99.90;;;;;;5072875;28;20055;-65
2022/10/06 06:31:26;;;;;;;12.32;2.30;;;11.00;99.90;;;;;;5071598;28;20874;-65
2022/10/06 06:33:53;;;;;;;15.32;2.20;;;11.10;99.90;;;;;;5072974;28;20121;-64
2022/10/06 06:36:34;;;;;;;14.27;1.83;;;11.20;99.90;;;;;;5071446;28;20047;-65
2022/10/06 06:39:01;;;;;;;15.05;2.70;;;11.30;99.90;;;;;;5073417;28;20032;-64
2022/10/06 06:41:28;;;;;;;15.35;2.08;;;11.30;99.90;;;;;;5071008;28;20081;-64
2022/10/06 06:43:55;;;;;;;12.55;1.90;;;11.40;99.90;;;;;;5072292;28;20513;-65
2022/10/06 06:46:23;;;;;;;15.35;2.78;;;11.40;99.90;;;;;;5072344;28;20121;-65
2022/10/06 06:48:53;;;;;;;17.48;2.22;;;11.60;99.10;;;;;;5074399;28;20047;-64
2022/10/06 06:51:23;;;;;;;13.20;1.92;;;11.80;99.10;;;;;;5074567;28;20052;-64
2022/10/06 06:53:49;;;;;;;13.50;2.20;;;11.50;99.10;;;;;;5073431;28;20477;-64
2022/10/06 06:56:16;;;;;;;16.40;2.28;;;11.90;98.70;;;;;;5073833;28;20036;-63
2022/10/06 06:58:46;;;;;;;19.30;1.90;;;11.70;96.80;;;;;;5070990;28;20072;-64
2022/10/06 07:01:14;;;;;;;14.65;2.75;;;11.80;96.00;;;;;;5072308;28;20036;-65
2022/10/06 07:03:42;;;;;;;15.40;2.22;;;12.50;96.40;;;;;;5072676;28;20032;-65
2022/10/06 07:06:10;;;;;;;16.77;2.30;;;14.10;95.00;;;;;;5072024;28;20043;-64
2022/10/06 07:08:37;;;;;;;15.30;1.77;;;12.10;95.70;;;;;;5071485;28;20079;-64
2022/10/06 07:11:15;;;;;;;16.33;2.17;;;12.30;90.30;;;;;;5072459;28;20029;-64
2022/10/06 07:13:41;;;;;;;11.75;1.88;;;12.30;81.30;;;;;;5069010;28;20388;-65
2022/10/06 07:27:20;;;;;;;16.05;2.58;;;13.50;38.90;;;;;;5043973;28;20131;-65
2022/10/06 07:29:46;;;;;;;12.52;2.08;;;13.30;43.10;;;;;;5068950;28;20512;-64
2022/10/06 07:32:12;;;;;;;15.20;3.00;;;13.30;44.90;;;;;;5071471;28;20036;-65
2022/10/06 07:34:40;;;;;;;19.63;2.45;;;15.40;37.90;;;;;;5071292;28;20036;-65
2022/10/06 07:37:05;;;;;;;16.10;2.92;;;13.80;39.20;;;;;;5070774;28;20586;-64
2022/10/06 07:39:31;;;;;;;12.82;1.98;;;14.10;20.10;;;;;;5071327;28;20036;-64
2022/10/06 07:41:57;;;;;;;14.27;3.15;;;14.00;14.40;;;;;;5072227;28;20066;-64
2022/10/06 07:44:23;;;;;;;15.85;2.67;;;14.00;12.10;;;;;;5072953;28;20531;-64
2022/10/06 07:46:51;;;;;;;15.82;2.95;;;13.90;17.90;;;;;;5071849;28;20036;-64
2022/10/06 07:49:16;;;;;;;13.95;3.25;;;13.80;12.80;;;;;;5072865;28;20101;-64
2022/10/06 07:51:43;;;;;;;9.40;2.10;;;13.60;23.60;;;;;;5070996;28;20048;-64
2022/10/06 07:54:09;;;;;;;12.38;2.05;;;13.60;28.90;;;;;;5072963;28;20578;-64
2022/10/06 07:56:35;;;;;;;16.95;2.03;;;15.80;34.40;;;;;;5056629;28;20055;-65
2022/10/06 07:59:01;;;;;;;11.90;2.00;;;13.70;29.90;;;;;;5072841;28;20336;-65
2022/10/06 08:01:28;;;;;;;10.45;1.83;;;13.90;28.20;;;;;;5073024;28;20089;-64
2022/10/06 08:03:54;;;;;;;9.20;1.90;;;15.30;22.80;;;;;;5072160;28;20050;-64
2022/10/06 08:06:23;;;;;;;16.05;2.03;;;13.90;17.80;;;;;;5072689;28;20036;-65
2022/10/06 08:08:51;;;;;;;15.48;2.42;;;13.70;22.80;;;;;;5072993;28;20271;-64
2022/10/06 08:11:17;;;;;;;15.70;2.53;;;13.80;20.00;;;;;;5072883;28;20039;-64
2022/10/06 08:13:46;;;;;;;12.20;2.55;;;13.90;21.30;;;;;;5071221;28;20040;-64
2022/10/06 08:16:15;;;;;;;13.73;1.80;;;14.00;21.60;;;;;;5071939;28;20055;-64
2022/10/06 08:18:41;;;;;;;13.25;1.98;;;13.80;19.40;;;;;;5071221;28;20040;-63
2022/10/06 08:21:22;;;;;;;15.32;2.10;;;13.90;19.40;;;;;;5070823;28;21689;-64
2022/10/06 08:23:49;;;;;;;13.10;2.22;;;14.30;13.80;;;;;;5070550;28;20497;-64
2022/10/06 08:26:16;;;;;;;13.85;2.53;;;14.10;8.70;;;;;;5071673;28;20039;-63
2022/10/06 08:28:45;;;;;;;14.63;2.15;;;14.00;10.70;;;;;;5070430;28;20052;-64
2022/10/06 08:31:11;;;;;;;17.33;2.47;;;14.10;7.20;;;;;;5070863;28;20032;-63
2022/10/06 08:33:41;;;;;;;12.82;1.98;;;14.00;14.30;;;;;;5071907;28;20039;-64
2022/10/06 08:36:13;;;;;;;12.60;1.90;;;13.90;7.50;;;;;;5070336;28;20067;-63
2022/10/06 08:38:39;;;;;;;13.98;2.65;;;13.50;14.30;;;;;;5071998;28;20043;-64
2022/10/06 08:41:42;;;;;;;15.75;2.30;;;14.20;1.00;;;;;;5071661;28;20078;-63
2022/10/06 08:44:19;;;;;;;14.93;2.95;;;14.50;1.00;;;;;;5103130;27;20039;-64
2022/10/06 08:46:54;;;;;;;13.70;2.30;;;14.70;1.00;;;;;;5071371;28;20056;-63
2022/10/06 08:49:22;;;;;;;12.07;2.00;;;14.70;1.00;;;;;;5068646;28;20040;-62
2022/10/06 08:51:58;;;;;;;15.02;2.50;;;14.60;1.00;;;;;;5070437;28;20532;-64
2022/10/06 08:54:46;;;;;;;14.57;2.92;;;14.60;1.00;;;;;;5070999;28;20408;-63
2022/10/06 08:57:21;;;;;;;17.20;2.90;;;14.50;1.00;;;;;;5069255;28;20043;-63
2022/10/06 08:59:52;;;;;;;12.23;1.60;;;14.50;1.00;;;;;;5070246;28;20052;-63
2022/10/06 09:02:26;;;;;;;13.02;2.05;;;15.50;1.00;;;;;;5069312;28;20507;-65
2022/10/06 09:04:52;;;;;;;15.55;1.65;;;14.90;1.00;;;;;;5069892;28;20260;-63
2022/10/06 09:07:47;;;;;;;12.30;1.92;;;14.90;1.00;;;;;;5068570;28;20044;-65
2022/10/06 09:10:51;;;;;;;15.23;1.88;;;15.00;1.00;;;;;;5070431;28;20044;-63
2022/10/06 09:13:27;;;;;;;9.05;1.45;;;14.80;1.00;;;;;;5053600;28;20756;-64
2022/10/06 09:15:58;;;;;;;12.38;1.70;;;14.90;1.00;;;;;;5068897;28;20127;-63
2022/10/06 09:18:39;;;;;;;13.30;2.38;;;16.10;1.00;;;;;;5070343;28;20117;-64
2022/10/06 09:21:22;;;;;;;13.70;2.50;;;15.10;1.00;;;;;;5069850;28;20044;-62
2022/10/06 09:23:58;;;;;;;11.07;2.00;;;15.00;1.00;;;;;;5072396;28;20618;-63
2022/10/06 09:26:30;;;;;;;12.57;1.77;;;15.00;99.90;;;;;;5071773;28;20083;-62
2022/10/06 09:28:56;;;;;;;10.15;1.85;;;15.10;1.00;;;;;;5070302;28;20080;-63
2022/10/06 09:31:41;;;;;;;12.55;1.92;;;15.00;99.90;;;;;;5068830;28;20036;-63
2022/10/06 09:34:34;;;;;;;11.45;1.67;;;15.00;1.00;;;;;;5070372;28;20052;-63
2022/10/06 09:37:06;;;;;;;12.88;1.90;;;15.20;99.90;;;;;;5069460;28;20050;-63
2022/10/06 09:39:40;;;;;;;13.93;2.08;;;15.10;99.90;;;;;;5068695;28;20037;-64
2022/10/06 09:42:06;;;;;;;12.38;2.35;;;15.20;99.90;;;;;;5070068;28;20048;-62
2022/10/06 09:45:23;;;;;;;15.25;2.28;;;15.40;99.90;;;;;;5069863;28;20056;-63
2022/10/06 09:47:49;;;;;;;16.23;2.25;;;15.50;99.90;;;;;;5035544;28;20411;-62
2022/10/06 09:50:26;;;;;;;8.75;1.48;;;15.40;99.90;;;;;;5067947;28;20044;-62
2022/10/06 09:53:02;;;;;;;12.85;1.85;;;15.20;99.90;;;;;;5068755;28;20062;-63
2022/10/06 09:55:36;;;;;;;12.68;1.70;;;15.20;99.90;;;;;;5070213;28;20548;-63
2022/10/06 09:58:15;;;;;;;15.63;2.03;;;15.40;99.90;;;;;;5069725;28;20036;-63
2022/10/06 10:00:51;;;;;;;9.15;1.70;;;15.30;99.90;;;;;;5067624;28;20101;-62
2022/10/06 10:03:16;;;;;;;9.77;1.60;;;15.40;99.90;;;;;;5069048;28;20123;-63
2022/10/06 10:05:48;;;;;;;11.70;1.70;;;15.30;99.90;;;;;;5070791;28;21170;-63
2022/10/06 10:08:21;;;;;;;7.97;1.65;;;15.30;99.90;;;;;;5068272;28;20051;-63
2022/10/06 10:10:48;;;;;;;12.68;1.98;;;15.50;99.90;;;;;;5069530;28;20108;-62
2022/10/06 10:13:25;;;;;;;11.95;1.85;;;16.00;99.90;;;;;;5068631;28;20450;-63
2022/10/06 10:15:58;;;;;;;11.10;2.28;;;16.20;99.90;;;;;;5070538;28;20040;-62
2022/10/06 10:18:29;;;;;;;6.05;1.30;;;16.20;99.90;;;;;;5069748;28;20048;-63
2022/10/06 10:21:09;;;;;;;12.20;2.20;;;16.60;99.90;;;;;;5100133;28;20047;-63
2022/10/06 10:23:54;;;;;;;12.45;1.67;;;16.60;99.90;;;;;;5067101;28;20044;-63
2022/10/06 10:26:27;;;;;;;9.68;1.70;;;16.40;74.00;;;;;;5068433;28;20028;-62
2022/10/06 10:29:05;;;;;;;12.93;2.33;;;16.40;1.00;;;;;;5071769;28;20047;-62
2022/10/06 10:31:53;;;;;;;11.38;1.95;;;16.60;1.00;;;;;;5071062;28;20072;-63
2022/10/06 10:34:45;;;;;;;10.13;1.67;;;16.60;99.90;;;;;;5056000;28;20036;-63
2022/10/06 10:37:26;;;;;;;10.05;1.60;;;16.40;99.90;;;;;;5073677;28;20159;-63
2022/10/06 10:40:18;;;;;;;11.20;1.23;;;16.40;1.00;;;;;;5071659;28;20236;-63
2022/10/06 10:42:49;;;;;;;8.38;1.20;;;16.40;99.90;;;;;;5073158;28;20042;-63
2022/10/06 10:45:25;;;;;;;12.23;1.73;;;16.50;99.90;;;;;;5073773;28;20044;-63
2022/10/06 10:47:52;;;;;;;7.97;1.63;;;16.60;99.90;;;;;;5056321;28;21747;-64
2022/10/06 10:50:43;;;;;;;7.25;1.48;;;16.60;99.90;;;;;;5072368;28;20067;-64
2022/10/06 10:53:31;;;;;;;8.95;1.67;;;16.70;99.90;;;;;;5074139;28;20075;-62
2022/10/06 10:55:59;;;;;;;8.48;1.35;;;16.60;99.90;;;;;;5074440;28;20285;-63
2022/10/06 10:58:40;;;;;;;12.05;1.63;;;16.80;99.90;;;;;;5073491;28;20757;-64
2022/10/06 11:01:30;;;;;;;9.13;1.50;;;16.80;99.90;;;;;;5073274;28;20064;-63
2022/10/06 11:03:57;;;;;;;8.30;1.50;;;18.00;1.00;;;;;;5071368;28;20032;-62
2022/10/06 11:06:47;;;;;;;8.13;1.38;;;16.70;99.90;;;;;;5074325;28;20036;-62
2022/10/06 11:09:19;;;;;;;18.42;2.20;;;16.70;99.90;;;;;;5072899;28;20043;-62
2022/10/06 11:11:54;;;;;;;;;;;16.90;1.00;;;;;;5073146;28;20110;-63
2022/10/06 11:14:53;;;;;;;6.22;1.10;;;16.80;99.90;;;;;;5071088;28;19935;-62
2022/10/06 11:17:45;;;;;;;10.15;1.67;;;16.90;99.90;;;;;;5068511;28;20072;-63
2022/10/06 11:20:20;;;;;;;7.57;1.33;;;16.90;41.20;;;;;;5070471;28;20050;-62
2022/10/06 11:23:07;;;;;;;7.38;1.10;;;16.70;99.90;;;;;;5055176;28;20358;-63
2022/10/06 11:25:48;;;;;;;8.77;1.23;;;16.90;99.90;;;;;;5073077;28;20043;-63
2022/10/06 11:28:32;;;;;;;8.88;1.10;;;17.10;99.90;;;;;;5072161;28;20132;-63
2022/10/06 11:31:20;;;;;;;7.07;1.33;;;16.00;1.00;;;;;;5072452;28;20047;-63
2022/10/06 11:33:57;;;;;;;7.28;1.15;;;18.70;69.60;;;;;;5072765;28;20401;-63
2022/10/06 11:36:36;;;;;;;10.10;1.58;;;17.00;99.90;;;;;;5070986;28;21122;-63
2022/10/06 11:39:33;;;;;;;6.45;1.27;;;16.80;1.00;;;;;;5069305;28;20044;-63
2022/10/06 11:42:22;;;;;;;12.38;1.67;;;16.90;99.90;;;;;;5071195;28;20409;-63
2022/10/06 11:45:04;;;;;;;8.25;1.35;;;16.80;99.90;;;;;;5071291;28;20471;-63
2022/10/06 11:47:59;;;;;;;10.00;1.30;;;16.90;8.90;;;;;;5070178;28;20047;-62
2022/10/06 11:50:33;;;;;;;8.88;1.50;;;17.00;99.90;;;;;;5071741;28;20635;-62
2022/10/06 11:52:59;;;;;;;7.35;1.08;;;16.90;99.90;;;;;;5070907;28;20378;-62
2022/10/06 11:55:27;;;;;;;11.75;2.17;;;17.60;99.90;;;;;;5071005;28;20089;-61
2022/10/06 11:58:15;;;;;;;10.63;1.30;;;16.60;99.90;;;;;;5073043;28;20039;-62
2022/10/06 12:00:45;;;;;;;12.20;1.83;;;16.70;99.90;;;;;;5071261;28;20066;-62
2022/10/06 12:03:32;;;;;;;8.55;1.65;;;16.70;1.00;;;;;;5072284;28;20131;-62
2022/10/06 12:05:57;;;;;;;12.85;1.60;;;16.70;99.90;;;;;;5072766;28;20420;-62
2022/10/06 12:08:36;;;;;;;12.15;1.55;;;16.50;1.00;;;;;;5071903;28;20039;-62
2022/10/06 12:11:22;;;;;;;8.65;1.45;;;16.50;99.90;;;;;;5071274;28;20040;-63
2022/10/06 12:13:52;;;;;;;10.15;1.80;;;16.60;62.60;;;;;;5070764;28;20040;-62
2022/10/06 12:16:34;;;;;;;21.55;1.83;;;16.80;99.90;;;;;;5066078;28;20116;-61
2022/10/06 12:19:45;;;;;;;10.82;2.17;;;16.60;79.20;;;;;;5067078;28;20048;-62
2022/10/06 12:22:37;;;;;;;10.23;1.70;;;16.60;99.90;;;;;;5049935;28;20220;-62
2022/10/06 12:25:17;;;;;;;18.38;2.15;;;16.20;26.80;;;;;;5069884;28;20036;-63
2022/10/06 12:28:20;;;;;;;10.55;1.48;;;16.40;99.90;;;;;;5069943;28;20079;-61
2022/10/06 12:31:15;;;;;;;9.05;1.30;;;16.30;99.90;;;;;;5070197;28;20036;-61
2022/10/06 12:33:42;;;;;;;16.10;2.17;;;16.40;99.90;;;;;;5053684;28;20043;-62
2022/10/06 12:36:22;;;;;;;9.93;1.17;;;16.70;99.90;;;;;;5070243;28;20044;-62
2022/10/06 12:39:06;;;;;;;12.65;2.08;;;16.30;99.90;;;;;;5070189;28;20047;-62
2022/10/06 12:42:01;;;;;;;7.47;1.23;;;16.20;1.00;;;;;;5070851;28;20397;-61
2022/10/06 12:44:44;;;;;;;6.03;1.10;;;16.10;99.90;;;;;;5069176;28;20035;-61
2022/10/06 12:47:22;;;;;;;11.35;2.08;;;16.20;99.90;;;;;;5068221;28;20044;-61
2022/10/06 12:49:59;;;;;;;15.00;1.58;;;16.40;1.00;;;;;;5069600;28;20496;-62
2022/10/06 12:52:42;;;;;;;9.60;1.88;;;16.60;99.90;;;;;;5070370;28;20128;-62
2022/10/06 12:55:32;;;;;;;8.20;1.10;;;16.40;99.90;;;;;;5069758;28;20087;-62
2022/10/06 12:57:58;;;;;;;9.25;1.10;;;16.30;99.90;;;;;;5067910;28;20040;-62
2022/10/06 13:00:44;;;;;;;8.57;1.45;;;16.30;1.00;;;;;;5069013;28;20682;-61
2022/10/06 13:03:23;;;;;;;9.43;1.40;;;16.40;1.00;;;;;;5069033;28;20055;-62
2022/10/06 13:05:59;;;;;;;8.15;1.40;;;16.50;99.90;;;;;;5069959;28;20067;-61
2022/10/06 13:08:31;;;;;;;10.25;1.85;;;16.40;95.20;;;;;;5069967;28;20040;-62
2022/10/06 13:11:10;;;;;;;12.10;1.38;;;16.40;99.90;;;;;;5070762;28;20043;-62
2022/10/06 13:13:44;;;;;;;9.88;1.30;;;16.60;99.90;;;;;;5068795;28;20043;-62
2022/10/06 13:16:10;;;;;;;4.63;1.13;;;16.40;1.00;;;;;;5069937;28;20044;-62
2022/10/06 13:18:36;;;;;;;7.57;1.25;;;16.50;99.90;;;;;;5069867;28;20039;-62